メインページ
METAR-TAF:

METAR-TAF

空港 :

マスコーカ, オンタリオ州, カナダ

緯度: 44-58N, 経度: 079-18W, 海抜: 280m

現時点の気象観測

当レポートは1時間6分前の16:00(UTC)に作成
西の風 10kt、最大15ktの突風を伴う、西/南西から北西の間で変化する
気温 25°C
湿度 57%
気圧 1011 hPa
視程: 14.5km
高度3500ftの雲はほとんどない

METAR: CYQA 211600Z AUTO 28010G15KT 250V320 9SM FEW035 25/16 A2986 RMK SLP112 DENSITY ALT 2300FT

時間: 13:06 (17:06 UTC)

予報

当レポートは3時間27分前の13:39(UTC)に作成
予報は21日の 14時(UTC)から 22日の 02時(UTC)まで有効
西の風 6kt
視程: 10km
高度4000ftの雲はほとんどない
21日の 14時(UTC)から 21日の 16時(UTC)まで徐々に
西の風 10kt

TAF: CYQA 211339Z 2114/2202 28006KT P6SM FEW040 BECMG 2114/2116 28010KT RMK FCST BASED ON AUTO OBS. NXT FCST BY 212000Z

4,000以上の空港の気象観測と天気予報(METAR報とTAF報)

利用可能な観測所は地図上に黄色い丸と赤い丸で示す。

丸の上にカーソルを重ねると観測所名を参照できる。

次にクリックすると気象観測と天気予報を参照できる。

マップの切り替え:黒色「×」印の緑ボタンをクリックして拡大、「-」印の緑ボタンをクリックして縮小、緑色の三角印をクリックして隣りの地図に切り替え


METAR-TAF: